Aérodrome :
LOGIN :

S'inscrire | Disclaimer

   EN    FR    IT 

 










Légende :    VFR   VFR Marginal   IFR   IFR Intensif   IFR Très Intensif
Visi : 
Plafond : 
>= 8 km
>= 3000ft
5 à 8 km
1000 à 3000 ft
1500m à 5 km
500 à 1000 ft
800 à 1500m
200 à 500 ft
< 800m
< 200 ft
Symboles :   Orages  Brouillard  Fortes neiges  Fortes précipitations  Vent > 20 kt
SIGMETs :   Divers  Orages  Givrage  Turbulence  Onde Orograph.  Cendres Volcan.






- Altitude de l'aérodrome : 485 ft
- Code IATA : QSA


LELL - Sabadell

DERNIER METAR :
  • 201300Z 28015KT 260V320 9999 FEW035 BKN040 21/14 Q1007

METARs EXPIRÉS :
  • 201230Z 25007KT 210V290 9999 -SHRA FEW030TCU BKN040 23/15 Q1007
  • 201200Z 25007KT 210V300 9999 FEW028 BKN043 24/14 Q1007
  • 201130Z 25007KT 210V300 9000 FEW028 BKN044 24/16 Q1007
  • 201100Z 24007KT 200V290 9000 FEW028 BKN040 24/17 Q1006
  • 201030Z 24007KT 200V280 9000 FEW028CB BKN030 24/18 Q1006

TAF AMD TAF LELL
Valide du 20 à 12h jusqu'au 21 à 09h UTC


201259Z 2012/2109 28012KT 9999 FEW040 TX25/2013Z TN11/2106Z
PROB40
TEMPO 2012/2017 4000 SHRA FEW030TCU BKN040
BECMG 2016/2018 VRB03KT



MET'MAP, la Météo Aéronautique d'un coup d'oeil ! - Copyright ORBIFLY Décembre 2007 - Disclaimer

ORBIFLY MET'MAP TEAM :

Programmation & Développement : Alexandra Zaïnal
Conception & Développement : Baudouin d'Aumeries
Co-Programmation & Développement : Marc-Olivier Méhu
Soutien technique & logistique : Manuel Goepfert

Contact : metmap@orbifly.com




SOURCES & CREDITS :

   NOAA